Time;durP1;ratioP1;P1;durP2;ratioP2;P2;SDS_P1;SDS_P2;PMS_P1;PMS_P2;Temp;Humidity;BMP_temperature;BMP_pressure;BME280_temperature;BME280_humidity;BME280_pressure;Samples;Min_cycle;Max_cycle;Signal;HPM_P1;HPM_P2
2022/04/04 00:01:46;;;;;;;3.98;2.77;;;;;;;2.74;77.85;148354.03;1771275;79;21084;-63
2022/04/04 00:04:14;;;;;;;4.05;3.02;;;;;;;2.67;78.35;148337.27;1787226;79;21201;-61
2022/04/04 00:06:43;;;;;;;4.45;2.83;;;;;;;2.62;78.60;148324.38;1811259;79;21505;-61
2022/04/04 00:09:11;;;;;;;4.87;3.05;;;;;;;2.59;78.90;148317.91;1810983;79;21478;-61
2022/04/04 00:11:38;;;;;;;4.08;2.90;;;;;;;2.55;79.02;148308.91;1811708;78;21051;-61
2022/04/04 00:14:07;;;;;;;5.60;3.33;;;;;;;2.54;79.09;148306.34;1810853;79;21039;-61
2022/04/04 00:16:36;;;;;;;4.70;3.20;;;;;;;2.52;79.11;148301.13;1811428;79;21024;-60
2022/04/04 00:19:05;;;;;;;5.12;3.17;;;;;;;2.48;79.35;148290.83;1811758;79;20869;-62
2022/04/04 00:21:33;;;;;;;5.10;3.12;;;;;;;2.43;79.60;148279.25;1818631;77;21453;-62
2022/04/04 00:24:01;;;;;;;4.97;3.22;;;;;;;2.39;79.79;148267.63;1821041;78;20849;-62
2022/04/04 00:26:30;;;;;;;4.45;3.37;;;;;;;2.35;79.92;148257.33;1820663;77;21414;-60
2022/04/04 00:28:58;;;;;;;4.80;3.10;;;;;;;2.31;80.14;148248.28;1821079;78;21544;-62
2022/04/04 00:31:25;;;;;;;6.80;3.52;;;;;;;2.28;80.21;148240.56;1821051;78;21001;-60
2022/04/04 00:33:53;;;;;;;4.22;3.05;;;;;;;2.24;80.34;148230.25;1821249;77;20864;-60
2022/04/04 00:36:22;;;;;;;5.65;3.08;;;;;;;2.18;80.52;148216.06;1820586;78;21031;-61
2022/04/04 00:38:49;;;;;;;4.78;3.02;;;;;;;2.12;80.81;148200.59;1821311;77;21016;-61
2022/04/04 00:41:17;;;;;;;5.45;3.58;;;;;;;2.07;81.03;148188.97;1820623;78;21223;-61
2022/04/04 00:43:45;;;;;;;4.47;3.00;;;;;;;2.03;81.21;148177.36;1820485;78;21023;-61
2022/04/04 00:46:12;;;;;;;6.83;3.20;;;;;;;1.98;81.47;148165.75;1819747;78;21758;-61
2022/04/04 00:48:40;;;;;;;7.37;3.80;;;;;;;1.93;81.72;148154.17;1820191;77;20979;-62
2022/04/04 00:51:07;;;;;;;5.45;3.30;;;;;;;1.87;82.04;148138.67;1820109;78;21026;-61
2022/04/04 00:53:35;;;;;;;5.58;3.55;;;;;;;1.84;82.26;148130.95;1820163;78;21111;-62
2022/04/04 00:56:04;;;;;;;6.35;3.58;;;;;;;1.80;82.52;148120.64;1820166;78;47702;-62
2022/04/04 00:58:31;;;;;;;5.72;3.55;;;;;;;1.77;82.66;148112.92;1820610;78;20999;-61
2022/04/04 01:00:59;;;;;;;5.97;3.65;;;;;;;1.71;82.80;148100.05;1820386;78;21016;-62
2022/04/04 01:03:26;;;;;;;6.00;3.65;;;;;;;1.66;83.13;148087.17;1820223;78;21094;-61
2022/04/04 01:05:57;;;;;;;5.05;3.67;;;;;;;1.63;83.38;148078.13;1820834;78;20905;-61
2022/04/04 01:08:24;;;;;;;5.60;3.65;;;;;;;1.59;83.62;148069.09;1820932;78;20960;-61
2022/04/04 01:10:52;;;;;;;6.08;3.95;;;;;;;1.56;83.72;148062.69;1821369;78;20865;-61
2022/04/04 01:13:20;;;;;;;5.83;3.42;;;;;;;1.55;83.90;148058.78;1820776;78;21639;-61
2022/04/04 01:15:49;;;;;;;7.95;3.70;;;;;;;1.53;84.07;148053.64;1821195;78;20876;-61
2022/04/04 01:18:16;;;;;;;5.83;3.80;;;;;;;1.51;84.23;148048.50;1820715;78;21115;-61
2022/04/04 01:20:44;;;;;;;6.60;3.92;;;;;;;1.48;84.31;148040.77;1821076;78;20950;-61
2022/04/04 01:23:13;;;;;;;6.92;4.12;;;;;;;1.46;84.47;148035.62;1820642;78;21468;-61
2022/04/04 01:25:40;;;;;;;5.92;4.03;;;;;;;1.42;84.56;148027.84;1820963;78;21269;-61
2022/04/04 01:28:09;;;;;;;4.70;3.52;;;;;;;1.40;84.86;148022.69;1820401;78;21480;-61
2022/04/04 01:30:38;;;;;;;6.95;4.28;;;;;;;1.38;84.86;148017.55;1820661;78;21038;-61
2022/04/04 01:33:05;;;;;;;6.62;4.17;;;;;;;1.35;85.03;148009.81;1820744;77;21319;-60
2022/04/04 01:35:33;;;;;;;6.78;4.33;;;;;;;1.34;85.24;148007.25;1820473;78;20983;-62
2022/04/04 01:38:01;;;;;;;8.18;4.10;;;;;;;1.32;85.26;148002.09;1820778;78;21393;-60
2022/04/04 01:40:29;;;;;;;7.40;3.95;;;;;;;1.30;85.39;147996.95;1820788;78;20983;-61
2022/04/04 01:42:57;;;;;;;6.65;3.92;;;;;;;1.32;85.46;148002.09;1820788;78;21189;-62
2022/04/04 01:48:10;;;;;;;7.95;4.70;;;;;;;1.28;85.46;147993.06;1820095;78;21023;-61
2022/04/04 01:50:38;;;;;;;8.58;4.75;;;;;;;1.23;85.59;147980.19;1820877;78;21718;-62
2022/04/04 01:55:52;;;;;;;7.12;4.45;;;;;;;1.16;85.83;147960.86;1820449;78;21113;-62
2022/04/04 01:58:19;;;;;;;6.05;4.33;;;;;;;1.12;86.03;147953.14;1819854;77;21007;-62
2022/04/04 02:00:46;;;;;;;6.85;4.10;;;;;;;1.11;86.15;147950.56;1820642;78;21011;-63
2022/04/04 02:03:13;;;;;;;7.35;4.42;;;;;;;1.12;86.29;147953.14;1819931;78;20990;-62
2022/04/04 02:05:40;;;;;;;7.60;4.53;;;;;;;1.13;86.33;147954.45;1820435;77;20928;-61
2022/04/04 02:08:09;;;;;;;6.37;3.87;;;;;;;1.16;86.33;147960.86;1820367;77;21055;-62
2022/04/04 02:10:36;;;;;;;8.53;4.10;;;;;;;1.18;86.29;147966.02;1820793;78;20991;-60
2022/04/04 02:13:04;;;;;;;7.35;4.30;;;;;;;1.16;86.26;147960.86;1820708;78;21612;-60
2022/04/04 02:15:31;;;;;;;6.40;4.05;;;;;;;1.17;86.22;147963.44;1820137;78;21019;-58
2022/04/04 02:17:59;;;;;;;7.22;4.12;;;;;;;1.15;86.26;147959.59;1791902;78;20889;-61
2022/04/04 02:20:27;;;;;;;7.75;4.47;;;;;;;1.18;86.40;147966.02;1819844;77;21288;-61
2022/04/04 02:22:54;;;;;;;6.78;4.47;;;;;;;1.19;86.41;147968.59;1811707;77;20905;-59
2022/04/04 02:25:22;;;;;;;7.25;4.30;;;;;;;1.18;86.45;147967.31;1811189;79;21485;-60
2022/04/04 02:27:50;;;;;;;7.08;4.50;;;;;;;1.18;86.60;147967.31;1811674;79;21457;-60
2022/04/04 02:30:17;;;;;;;7.75;4.40;;;;;;;1.20;86.69;147971.16;1811362;79;22144;-61
2022/04/04 02:32:44;;;;;;;8.25;4.12;;;;;;;1.18;86.73;147966.02;1811892;79;21123;-61
2022/04/04 02:35:11;;;;;;;7.08;4.75;;;;;;;1.21;86.85;147973.73;1811844;78;21092;-60
2022/04/04 02:37:40;;;;;;;9.58;5.08;;;;;;;1.21;86.85;147973.73;1811636;79;20913;-59
2022/04/04 02:40:09;;;;;;;8.28;4.40;;;;;;;1.20;86.86;147971.16;1811734;78;20972;-60
2022/04/04 02:42:38;;;;;;;6.55;4.20;;;;;;;1.18;86.93;147966.02;1811731;78;21538;-60
2022/04/04 02:45:06;;;;;;;6.75;4.40;;;;;;;1.16;86.96;147960.86;1810885;79;21235;-60
2022/04/04 02:47:35;;;;;;;8.53;5.20;;;;;;;1.14;87.03;147958.28;1811003;78;21454;-59
2022/04/04 02:50:05;;;;;;;8.08;4.83;;;;;;;1.12;87.10;147953.14;1811169;79;20973;-60
2022/04/04 02:52:34;;;;;;;8.18;5.17;;;;;;;1.11;87.10;147949.31;1812032;79;21466;-59
2022/04/04 02:56:29;;;;;;;8.75;4.95;;;;;;;1.05;87.14;147935.13;1811999;79;21023;-60
2022/04/04 02:57:34;;;;;;;9.10;4.97;;;;;;;1.03;87.29;147928.66;1807264;79;21434;-59
2022/04/04 03:00:02;;;;;;;8.68;5.42;;;;;;;0.99;87.46;147919.63;1811917;79;20959;-59
2022/04/04 03:02:31;;;;;;;7.95;4.70;;;;;;;0.97;87.56;147914.48;1811751;78;20921;-59
2022/04/04 03:04:59;;;;;;;9.48;5.10;;;;;;;0.96;87.69;147913.22;1811964;79;21421;-59
2022/04/04 03:07:27;;;;;;;8.20;5.30;;;;;;;0.96;87.83;147911.91;1812110;79;20952;-59
2022/04/04 03:09:54;;;;;;;7.78;4.62;;;;;;;0.96;87.90;147911.91;1812010;79;21223;-59
2022/04/04 03:12:22;;;;;;;10.43;5.22;;;;;;;0.96;87.97;147911.91;1811599;79;21035;-59
2022/04/04 03:14:51;;;;;;;9.50;5.80;;;;;;;0.95;87.97;147909.33;1811425;79;21473;-59
2022/04/04 03:17:19;;;;;;;6.83;4.70;;;;;;;0.92;87.92;147902.92;1810990;78;21051;-60
2022/04/04 03:19:47;;;;;;;9.10;4.80;;;;;;;0.89;88.00;147893.89;1811289;79;21008;-60
2022/04/04 03:22:14;;;;;;;11.43;5.47;;;;;;;0.87;88.05;147888.75;1810830;78;21200;-60
2022/04/04 03:24:44;;;;;;;10.25;5.70;;;;;;;0.84;88.12;147883.59;1810901;79;21074;-61
2022/04/04 03:27:14;;;;;;;10.28;5.70;;;;;;;0.83;88.19;147881.03;1765942;79;21111;-61
2022/04/04 03:29:41;;;;;;;9.53;5.58;;;;;;;0.81;88.24;147874.56;1748362;80;21282;-61
2022/04/04 03:32:09;;;;;;;11.12;5.30;;;;;;;0.78;88.37;147868.16;1748491;82;20988;-61
2022/04/04 03:34:36;;;;;;;8.50;5.60;;;;;;;0.77;88.47;147865.53;1748299;80;22167;-61
2022/04/04 03:37:06;;;;;;;10.15;5.37;;;;;;;0.76;88.59;147861.70;1748092;80;21066;-60
2022/04/04 03:39:33;;;;;;;10.68;5.70;;;;;;;0.76;88.66;147862.97;1747960;82;22091;-62
2022/04/04 03:42:00;;;;;;;8.73;5.37;;;;;;;0.77;88.72;147865.53;1765314;80;20996;-61
2022/04/04 03:44:28;;;;;;;9.45;5.67;;;;;;;0.76;88.70;147862.97;1779155;80;22155;-61
2022/04/04 03:46:55;;;;;;;9.53;5.28;;;;;;;0.77;88.80;147865.53;1779759;80;21481;-60
2022/04/04 03:49:22;;;;;;;8.48;5.08;;;;;;;0.81;88.85;147875.88;1778987;80;21077;-59
2022/04/04 03:51:49;;;;;;;8.53;5.20;;;;;;;0.83;88.90;147881.03;1779908;80;21071;-59
2022/04/04 03:54:16;;;;;;;9.45;5.58;;;;;;;0.87;88.81;147888.75;1779389;79;21079;-59
2022/04/04 03:56:45;;;;;;;9.50;5.45;;;;;;;0.92;88.75;147902.92;1779579;80;21102;-59
2022/04/04 03:59:13;;;;;;;8.55;5.70;;;;;;;0.99;88.72;147919.63;1779346;80;21222;-60
2022/04/04 04:01:40;;;;;;;8.53;5.47;;;;;;;1.08;88.53;147941.53;1778878;80;21023;-60
2022/04/04 04:04:07;;;;;;;10.45;5.60;;;;;;;1.12;88.10;147953.14;1780831;79;21043;-60
2022/04/04 04:06:35;;;;;;;9.83;6.10;;;;;;;1.16;87.85;147960.86;1799041;79;21051;-60
2022/04/04 04:09:04;;;;;;;10.43;5.22;;;;;;;1.21;87.75;147975.05;1748259;82;21067;-61
2022/04/04 04:11:31;;;;;;;8.70;5.40;;;;;;;1.28;87.57;147993.06;1747991;82;21877;-59
2022/04/04 04:14:00;;;;;;;8.10;5.25;;;;;;;1.39;87.39;148020.13;1748161;82;20980;-59
2022/04/04 04:16:29;;;;;;;8.90;5.28;;;;;;;1.50;87.20;148045.91;1747826;82;21071;-60
2022/04/04 04:18:57;;;;;;;9.58;5.95;;;;;;;1.62;86.92;148076.81;1748020;82;20984;-59
2022/04/04 04:21:24;;;;;;;9.15;5.65;;;;;;;1.75;86.49;148107.77;1748587;81;21098;-59
2022/04/04 04:23:52;;;;;;;15.40;5.47;;;;;;;1.88;86.09;148139.98;1753922;80;21462;-59
2022/04/04 04:26:19;;;;;;;8.30;5.25;;;;;;;2.00;85.68;148170.94;1753885;81;21036;-59
2022/04/04 04:28:47;;;;;;;9.23;5.50;;;;;;;2.13;85.22;148204.44;1754752;80;21067;-61
2022/04/04 04:31:16;;;;;;;9.45;5.33;;;;;;;2.26;84.73;148236.66;1754005;80;21028;-61
2022/04/04 04:33:43;;;;;;;7.92;5.55;;;;;;;2.41;84.27;148272.78;1754517;80;21218;-60
2022/04/04 04:36:12;;;;;;;12.63;6.80;;;;;;;2.58;83.75;148315.33;1754547;80;21395;-59
2022/04/04 04:38:39;;;;;;;10.88;6.10;;;;;;;2.74;83.07;148355.31;1754000;80;21084;-62
2022/04/04 04:41:06;;;;;;;10.15;5.95;;;;;;;2.90;82.35;148394.02;1754295;80;21498;-62
2022/04/04 04:43:34;;;;;;;13.55;6.25;;;;;;;3.04;81.70;148430.16;1754208;81;21025;-62
2022/04/04 04:46:02;;;;;;;18.65;6.42;;;;;;;3.20;81.09;148468.83;1754517;81;21028;-61
2022/04/04 04:48:29;;;;;;;9.23;5.60;;;;;;;3.35;80.38;148507.56;1754144;81;21864;-60
2022/04/04 04:50:57;;;;;;;11.30;5.62;;;;;;;3.50;79.62;148543.72;1754622;81;21048;-60
2022/04/04 04:53:24;;;;;;;9.83;4.97;;;;;;;3.64;78.94;148578.56;1754143;81;21040;-60
2022/04/04 04:55:53;;;;;;;10.48;4.83;;;;;;;3.77;78.21;148610.81;1754554;80;21037;-59
2022/04/04 04:58:20;;;;;;;9.33;5.55;;;;;;;3.93;77.35;148652.16;1754185;81;21076;-60
2022/04/04 05:00:47;;;;;;;7.90;4.95;;;;;;;4.08;76.77;148689.58;1753956;81;21229;-59
2022/04/04 05:03:24;;;;;;;7.83;4.97;;;;;;;4.23;76.03;148727.03;1753622;80;20952;-60
2022/04/04 05:05:52;;;;;;;8.63;4.97;;;;;;;4.37;75.31;148760.62;1753925;81;21866;-59
2022/04/04 05:08:20;;;;;;;7.87;5.00;;;;;;;4.52;74.36;148799.34;1754160;81;21032;-61
2022/04/04 05:10:48;;;;;;;7.37;4.35;;;;;;;4.61;73.40;148820.03;1753769;80;21071;-61
2022/04/04 05:13:17;;;;;;;7.28;4.87;;;;;;;4.91;72.26;148896.27;1753916;80;21233;-60
2022/04/04 05:15:45;;;;;;;8.60;4.87;;;;;;;4.91;72.26;148896.27;1735223;81;21025;-61
2022/04/04 05:18:13;;;;;;;10.08;4.97;;;;;;;5.06;71.35;148933.73;1753602;81;21115;-59
2022/04/04 05:20:41;;;;;;;10.48;5.50;;;;;;;5.22;70.45;148972.52;1753379;81;21573;-60
2022/04/04 05:23:08;;;;;;;7.45;4.65;;;;;;;5.33;69.64;149000.92;1755319;80;21469;-61
2022/04/04 05:25:35;;;;;;;6.85;4.72;;;;;;;5.45;68.74;149031.97;1755656;81;21142;-61
2022/04/04 05:28:02;;;;;;;7.92;4.70;;;;;;;5.56;67.85;149057.80;1755710;81;21479;-62
2022/04/04 05:30:30;;;;;;;9.25;5.10;;;;;;;5.60;66.18;149068.13;1756318;80;21119;-62
2022/04/04 05:32:57;;;;;;;7.10;4.67;;;;;;;5.61;66.29;149070.72;1756504;81;21496;-60
2022/04/04 05:35:26;;;;;;;7.67;4.70;;;;;;;5.71;66.13;149095.28;1755937;81;20933;-60
2022/04/04 05:37:54;;;;;;;8.15;4.37;;;;;;;5.82;65.32;149122.44;1756474;81;21106;-61
2022/04/04 05:40:23;;;;;;;7.08;4.15;;;;;;;5.87;64.68;149136.67;1756266;81;21307;-61
2022/04/04 05:42:51;;;;;;;7.80;4.37;;;;;;;5.98;64.28;149163.83;1756970;81;21059;-61
2022/04/04 05:45:18;;;;;;;7.72;4.85;;;;;;;6.04;63.38;149176.80;1756730;80;21276;-62
2022/04/04 05:47:48;;;;;;;10.43;4.58;;;;;;;6.00;62.17;149169.00;1756665;81;20956;-62
2022/04/04 05:50:20;;;;;;;7.10;4.10;;;;;;;5.96;62.34;149158.66;1756072;81;21195;-61
2022/04/04 05:52:47;;;;;;;7.97;4.47;;;;;;;6.06;62.10;149181.97;1756406;81;21533;-61
2022/04/04 05:55:15;;;;;;;7.87;4.47;;;;;;;6.19;61.15;149215.62;1756386;80;21161;-61
2022/04/04 05:57:42;;;;;;;7.80;3.92;;;;;;;6.23;60.51;149225.95;1756779;81;21052;-62
2022/04/04 06:00:13;;;;;;;8.45;5.20;;;;;;;6.33;60.22;149250.53;1756790;80;21000;-62
2022/04/04 06:02:41;;;;;;;9.58;4.55;;;;;;;6.39;58.92;149264.78;1757171;80;21867;-61
2022/04/04 06:05:09;;;;;;;8.03;4.12;;;;;;;6.45;59.44;149280.28;1756706;80;21019;-62
2022/04/04 06:07:38;;;;;;;7.33;4.25;;;;;;;6.78;58.78;149361.80;1756386;81;21446;-61
2022/04/04 06:10:09;;;;;;;6.65;4.17;;;;;;;7.22;57.99;149473.09;1756707;81;20981;-61
2022/04/04 06:12:38;;;;;;;8.03;4.35;;;;;;;7.92;56.45;149647.91;1757103;81;21393;-62
2022/04/04 06:15:08;;;;;;;7.08;4.35;;;;;;;8.82;54.56;149873.38;1756940;81;21383;-62
2022/04/04 06:17:35;;;;;;;7.33;4.35;;;;;;;9.44;52.00;150027.63;1757127;80;21015;-63
2022/04/04 06:20:03;;;;;;;5.05;3.80;;;;;;;9.93;50.58;150150.84;1757121;81;21526;-61
2022/04/04 06:22:38;;;;;;;6.97;4.37;;;;;;;10.45;48.85;150280.59;1757133;80;21088;-61
2022/04/04 06:25:08;;;;;;;6.30;4.10;;;;;;;10.73;48.39;150350.72;1756721;81;20949;-61
2022/04/04 06:27:36;;;;;;;6.20;4.40;;;;;;;10.74;46.93;150353.31;1756551;81;21000;-62
2022/04/04 06:30:05;;;;;;;7.78;3.60;;;;;;;10.52;46.60;150298.80;1756276;81;21462;-61
2022/04/04 06:32:33;;;;;;;4.20;3.42;;;;;;;10.21;46.53;150220.88;1756357;81;21478;-61
2022/04/04 06:35:06;;;;;;;6.85;4.10;;;;;;;9.88;44.44;150137.88;1756611;81;21007;-60
2022/04/04 06:37:33;;;;;;;7.78;4.25;;;;;;;9.28;45.36;149987.44;1757004;81;21515;-63
2022/04/04 06:40:00;;;;;;;7.33;4.30;;;;;;;8.88;46.94;149888.92;1757059;81;21124;-61
2022/04/04 06:42:27;;;;;;;6.95;4.03;;;;;;;8.61;46.69;149820.22;1756863;81;21072;-60
2022/04/04 06:44:57;;;;;;;7.03;4.00;;;;;;;8.30;47.22;149743.78;1757140;81;21035;-61
2022/04/04 06:47:26;;;;;;;5.28;3.55;;;;;;;7.98;47.19;149662.16;1756546;81;21076;-60
2022/04/04 06:49:53;;;;;;;6.70;4.20;;;;;;;7.78;48.15;149611.62;1756833;81;21040;-60
2022/04/04 06:52:22;;;;;;;6.53;4.03;;;;;;;7.82;48.39;149621.98;1756293;81;21050;-59
2022/04/04 06:54:50;;;;;;;5.53;3.67;;;;;;;7.88;48.09;149637.56;1756519;81;21024;-59
2022/04/04 06:57:18;;;;;;;6.55;4.00;;;;;;;7.85;48.25;149629.80;1756210;81;21466;-61
2022/04/04 06:59:45;;;;;;;7.00;4.12;;;;;;;7.92;48.37;149646.59;1756657;81;21062;-61
2022/04/04 07:02:13;;;;;;;8.23;4.62;;;;;;;7.98;47.98;149662.16;1756382;81;21052;-61
2022/04/04 07:04:41;;;;;;;6.12;3.67;;;;;;;7.85;47.54;149631.06;1756473;81;21040;-62
2022/04/04 07:07:09;;;;;;;6.17;3.65;;;;;;;7.72;47.62;149598.69;1757198;81;21390;-61
2022/04/04 07:09:37;;;;;;;6.35;3.77;;;;;;;7.78;47.66;149612.95;1756274;81;21495;-61
2022/04/04 07:12:05;;;;;;;5.67;3.67;;;;;;;7.86;46.91;149633.66;1756503;80;21005;-62
2022/04/04 07:14:33;;;;;;;5.92;3.85;;;;;;;7.90;46.88;149642.73;1756669;81;21037;-62
2022/04/04 07:17:02;;;;;;;9.55;3.90;;;;;;;7.93;46.36;149650.50;1756843;81;21260;-61
2022/04/04 07:19:34;;;;;;;6.03;4.00;;;;;;;7.94;45.60;149653.08;1756014;81;21060;-63
2022/04/04 07:22:01;;;;;;;5.30;3.70;;;;;;;7.84;44.39;149627.16;1756732;81;21390;-62
2022/04/04 07:24:29;;;;;;;7.10;3.85;;;;;;;7.47;43.95;149533.95;1753414;81;21366;-60
2022/04/04 07:26:57;;;;;;;7.80;3.70;;;;;;;7.23;45.07;149474.42;1765712;80;21002;-61
2022/04/04 07:29:30;;;;;;;5.83;3.40;;;;;;;7.25;45.42;149479.59;1761907;81;21224;-61
2022/04/04 07:31:59;;;;;;;5.00;3.27;;;;;;;7.37;44.55;149510.62;1740870;81;21506;-61
2022/04/04 07:34:26;;;;;;;4.33;3.12;;;;;;;7.47;43.09;149533.95;1740792;81;21677;-62
2022/04/04 07:36:54;;;;;;;5.22;3.83;;;;;;;7.56;42.60;149557.25;1759740;80;21045;-63
2022/04/04 07:39:21;;;;;;;5.85;3.17;;;;;;;7.54;40.08;149552.06;1762716;81;21112;-61
2022/04/04 07:41:48;;;;;;;5.22;3.25;;;;;;;7.26;40.62;149483.44;1762357;81;21244;-60
2022/04/04 07:44:16;;;;;;;4.78;3.20;;;;;;;6.99;40.10;149414.88;1762068;81;20970;-61
2022/04/04 07:46:43;;;;;;;6.30;3.22;;;;;;;6.87;41.11;149386.37;1762544;81;21079;-61
2022/04/04 07:49:11;;;;;;;5.28;3.40;;;;;;;6.97;41.76;149409.70;1762623;80;21427;-60
2022/04/04 07:51:39;;;;;;;5.67;3.42;;;;;;;7.12;41.58;149448.50;1768036;79;21423;-60
2022/04/04 07:54:06;;;;;;;8.18;3.85;;;;;;;7.10;41.64;149443.33;1770907;79;21264;-61
2022/04/04 07:56:34;;;;;;;4.97;3.17;;;;;;;7.17;41.89;149461.44;1770118;81;21053;-61
2022/04/04 07:59:01;;;;;;;6.20;3.67;;;;;;;7.27;39.95;149484.77;1766255;81;21084;-61
2022/04/04 08:01:29;;;;;;;6.97;3.67;;;;;;;7.09;40.31;149440.75;1761923;81;21078;-62
2022/04/04 08:03:56;;;;;;;5.08;3.50;;;;;;;6.91;40.95;149394.14;1762224;80;21018;-61
2022/04/04 08:06:24;;;;;;;5.37;3.47;;;;;;;6.80;41.44;149368.28;1762220;80;21863;-61
2022/04/04 08:08:51;;;;;;;5.20;3.80;;;;;;;6.73;42.16;149351.45;1762004;81;21088;-62
2022/04/04 08:11:19;;;;;;;7.58;3.60;;;;;;;6.81;42.66;149369.55;1761831;81;21108;-62
2022/04/04 08:13:47;;;;;;;5.78;3.85;;;;;;;6.92;42.59;149398.05;1762018;80;21021;-62
2022/04/04 08:16:16;;;;;;;5.95;3.72;;;;;;;7.08;42.02;149436.89;1762173;81;20939;-61
2022/04/04 08:18:44;;;;;;;6.95;3.70;;;;;;;7.16;42.04;149458.84;1762517;80;21693;-60
2022/04/04 08:21:15;;;;;;;5.42;3.52;;;;;;;7.25;42.12;149479.59;1763056;81;21300;-61
2022/04/04 08:23:42;;;;;;;5.55;3.87;;;;;;;7.33;41.73;149500.28;1774224;80;21366;-62
2022/04/04 08:26:10;;;;;;;6.50;3.85;;;;;;;7.34;41.73;149501.59;1785645;80;21422;-60
2022/04/04 08:28:38;;;;;;;6.03;3.60;;;;;;;7.36;41.83;149506.78;1785316;80;21136;-61
2022/04/04 08:31:06;;;;;;;5.92;3.62;;;;;;;7.44;41.28;149527.47;1785232;80;21221;-60
2022/04/04 08:33:33;;;;;;;5.25;3.47;;;;;;;7.44;41.82;149528.78;1785430;79;21064;-61
2022/04/04 08:36:03;;;;;;;6.92;4.05;;;;;;;7.45;41.02;149530.06;1785654;78;21436;-61
2022/04/04 08:38:29;;;;;;;5.77;4.00;;;;;;;7.26;41.03;149482.17;1784974;80;21068;-61
2022/04/04 08:41:01;;;;;;;6.00;3.70;;;;;;;6.97;41.27;149409.70;1784977;79;21012;-60
2022/04/04 08:46:17;;;;;;;9.25;4.33;;;;;;;6.71;42.33;149344.97;1729668;82;21020;-61
2022/04/04 08:48:45;;;;;;;5.37;3.75;;;;;;;6.80;42.72;149366.97;1710092;82;21034;-62
2022/04/04 08:51:24;;;;;;;6.75;4.17;;;;;;;6.95;42.03;149404.48;1721978;82;21056;-61
2022/04/04 08:53:52;;;;;;;6.55;4.30;;;;;;;7.05;41.96;149430.41;1746726;82;21063;-60
2022/04/04 08:56:23;;;;;;;5.55;3.92;;;;;;;7.14;42.23;149453.67;1747163;81;21485;-61
2022/04/04 08:58:51;;;;;;;6.03;3.67;;;;;;;7.31;41.35;149495.11;1785250;80;21031;-61
2022/04/04 09:01:20;;;;;;;6.78;3.95;;;;;;;7.31;40.44;149496.42;1783724;80;21056;-61
2022/04/04 09:04:08;;;;;;;5.62;3.98;;;;;;;7.27;40.97;149486.03;1784893;78;21052;-61
2022/04/04 09:06:53;;;;;;;7.03;4.40;;;;;;;7.33;41.32;149500.28;1784337;79;21111;-62
2022/04/04 09:09:39;;;;;;;7.47;4.05;;;;;;;7.34;41.19;149501.59;1784889;80;21279;-60
2022/04/04 09:12:11;;;;;;;6.40;4.15;;;;;;;7.38;41.81;149513.22;1785133;80;21575;-60
2022/04/04 09:14:45;;;;;;;6.92;4.30;;;;;;;7.64;41.66;149578.00;1785430;80;21044;-61
2022/04/04 09:17:14;;;;;;;7.75;4.00;;;;;;;7.95;41.49;149654.34;1784869;79;21040;-61
2022/04/04 09:19:41;;;;;;;7.65;4.10;;;;;;;8.28;40.89;149738.55;1784451;80;21027;-63
2022/04/04 09:22:20;;;;;;;6.80;4.10;;;;;;;8.37;40.00;149759.31;1784528;80;22245;-61
2022/04/04 09:24:56;;;;;;;6.78;4.12;;;;;;;8.22;39.29;149721.75;1784549;79;21039;-60
2022/04/04 09:27:36;;;;;;;6.22;3.85;;;;;;;7.97;39.56;149660.84;1784878;80;20995;-62
2022/04/04 09:30:08;;;;;;;9.05;3.95;;;;;;;7.89;39.55;149640.14;1784968;80;21424;-60
2022/04/04 09:32:43;;;;;;;9.25;4.22;;;;;;;7.92;40.07;149647.91;1764061;80;20917;-61
2022/04/04 09:35:14;;;;;;;8.60;4.42;;;;;;;8.02;40.21;149673.80;1779398;80;21745;-61
2022/04/04 09:37:48;;;;;;;6.30;3.90;;;;;;;7.95;39.97;149654.34;1780389;80;20962;-60
2022/04/04 09:40:19;;;;;;;10.82;5.05;;;;;;;7.78;39.53;149611.62;1777984;79;21019;-61
2022/04/04 09:42:58;;;;;;;7.22;4.33;;;;;;;7.58;39.55;149562.42;1766805;80;21041;-62
2022/04/04 09:45:28;;;;;;;8.48;4.33;;;;;;;7.51;40.16;149544.31;1776013;80;21515;-61
2022/04/04 09:48:01;;;;;;;8.95;4.53;;;;;;;7.60;40.62;149568.91;1775371;80;21078;-61
2022/04/04 09:50:47;;;;;;;7.17;3.83;;;;;;;7.80;40.40;149616.81;1782361;80;21269;-61
2022/04/04 09:53:21;;;;;;;6.30;3.92;;;;;;;8.03;40.30;149676.38;1778413;79;21418;-60
2022/04/04 09:55:55;;;;;;;6.22;4.03;;;;;;;8.36;39.45;149757.98;1773281;80;21034;-61
2022/04/04 09:58:26;;;;;;;5.87;4.17;;;;;;;8.44;38.92;149778.75;1785530;78;21496;-61
2022/04/04 10:00:53;;;;;;;5.22;3.62;;;;;;;8.37;38.91;149760.58;1781031;79;21444;-61
2022/04/04 10:03:21;;;;;;;6.55;4.00;;;;;;;8.42;39.40;149772.25;1767138;80;21065;-61
2022/04/04 10:06:05;;;;;;;6.10;4.10;;;;;;;8.56;39.48;149808.59;1784695;79;21034;-61
2022/04/04 10:08:34;;;;;;;5.72;4.05;;;;;;;8.76;39.24;149856.53;1776272;79;26702;-61
2022/04/04 10:11:02;;;;;;;5.72;3.70;;;;;;;8.93;38.93;149899.28;1784804;79;21005;-62
2022/04/04 10:13:31;;;;;;;6.62;4.15;;;;;;;9.02;38.77;149922.64;1782446;79;21997;-61
2022/04/04 10:15:58;;;;;;;6.30;3.90;;;;;;;9.11;38.72;149945.95;1728997;80;21037;-60
2022/04/04 10:18:26;;;;;;;6.50;4.40;;;;;;;9.16;38.06;149958.91;1772300;80;21071;-61
2022/04/04 10:20:53;;;;;;;6.60;4.30;;;;;;;8.95;38.28;149904.47;1775360;79;21097;-60
2022/04/04 10:23:22;;;;;;;8.45;4.10;;;;;;;8.78;38.86;149863.03;1774122;79;21037;-60
2022/04/04 10:25:50;;;;;;;7.95;4.28;;;;;;;8.75;39.28;149855.25;1775243;79;21794;-61
2022/04/04 10:28:32;;;;;;;6.78;4.20;;;;;;;8.83;39.33;149874.66;1778022;80;20959;-61
2022/04/04 10:31:16;;;;;;;5.85;4.08;;;;;;;8.89;39.17;149890.23;1772380;79;21047;-60
2022/04/04 10:33:45;;;;;;;8.08;4.20;;;;;;;8.93;39.14;149899.28;1782081;79;21433;-60
2022/04/04 10:36:23;;;;;;;6.92;4.28;;;;;;;8.88;38.58;149888.92;1775878;79;21539;-62
2022/04/04 10:38:54;;;;;;;6.37;4.08;;;;;;;8.85;38.69;149881.16;1775362;80;21535;-60
2022/04/04 10:41:25;;;;;;;5.33;3.60;;;;;;;8.98;39.00;149913.55;1773789;79;21042;-60
2022/04/04 10:43:54;;;;;;;6.50;3.40;;;;;;;9.19;38.59;149964.12;1767287;80;21057;-60
2022/04/04 10:46:23;;;;;;;11.55;4.10;;;;;;;9.38;37.97;150013.34;1781368;80;20995;-61
2022/04/04 10:48:57;;;;;;;6.90;3.85;;;;;;;9.58;37.73;150062.62;1782183;79;21026;-60
2022/04/04 10:51:34;;;;;;;6.42;4.08;;;;;;;9.71;37.51;150096.36;1773360;80;21197;-61
2022/04/04 10:54:15;;;;;;;5.33;3.55;;;;;;;9.75;37.25;150106.73;1780233;80;21004;-61
2022/04/04 10:56:47;;;;;;;6.42;3.52;;;;;;;9.72;36.93;150098.95;1776696;80;21357;-59
2022/04/04 10:59:23;;;;;;;7.35;4.50;;;;;;;9.74;36.58;150104.14;1776926;79;20962;-60
2022/04/04 11:01:54;;;;;;;5.03;3.65;;;;;;;9.68;37.11;150088.59;1776905;79;21015;-61
2022/04/04 11:04:38;;;;;;;5.55;3.62;;;;;;;9.71;37.45;150096.36;1775401;80;21508;-61
2022/04/04 11:10:08;;;;;;;5.78;3.72;;;;;;;9.84;36.67;150127.52;1777435;80;21092;-61
2022/04/04 11:13:04;;;;;;;6.10;3.70;;;;;;;9.85;36.72;150130.11;1775983;80;20958;-61
2022/04/04 11:15:45;;;;;;;6.33;3.50;;;;;;;9.94;36.09;150152.11;1776048;79;21055;-61
2022/04/04 11:18:13;;;;;;;7.95;3.95;;;;;;;10.09;35.96;150191.03;1779267;80;21080;-61
2022/04/04 11:20:48;;;;;;;6.97;3.65;;;;;;;10.19;36.01;150215.69;1776497;79;21727;-61
2022/04/04 11:23:15;;;;;;;9.20;4.10;;;;;;;10.26;35.85;150232.56;1773115;79;21109;-60
2022/04/04 11:25:57;;;;;;;5.50;3.98;;;;;;;10.27;35.30;150236.44;1775449;80;21065;-60
2022/04/04 11:28:24;;;;;;;7.10;4.35;;;;;;;10.26;34.91;150233.84;1779441;79;21019;-60
2022/04/04 11:30:54;;;;;;;6.65;4.40;;;;;;;10.16;34.96;150209.19;1783847;79;21583;-61
2022/04/04 11:33:26;;;;;;;6.03;4.08;;;;;;;10.14;35.00;150202.73;1773309;79;21072;-61
2022/04/04 11:35:54;;;;;;;6.42;4.20;;;;;;;10.12;34.73;150197.55;1771183;79;21495;-62
2022/04/04 11:38:22;;;;;;;8.75;4.33;;;;;;;10.16;34.74;150207.91;1771599;79;21024;-59
2022/04/04 11:40:53;;;;;;;5.15;3.90;;;;;;;10.18;34.58;150213.09;1766295;79;21044;-60
2022/04/04 11:43:19;;;;;;;6.25;3.87;;;;;;;10.17;34.62;150211.83;1762418;81;21370;-60
2022/04/04 11:45:49;;;;;;;5.33;3.85;;;;;;;10.16;34.30;150207.91;1762679;80;21418;-60
2022/04/04 11:48:28;;;;;;;7.30;3.92;;;;;;;10.08;34.26;150187.17;1763181;80;21361;-62
2022/04/04 11:50:58;;;;;;;6.17;3.92;;;;;;;10.01;34.28;150171.58;1762756;80;21076;-61
2022/04/04 11:53:35;;;;;;;5.72;3.95;;;;;;;9.94;34.24;150152.11;1762830;80;21017;-61